createdAt,value
2022-11-21T00:01:43.468Z,0.95
2022-11-21T00:04:12.839Z,1.13
2022-11-21T00:06:41.909Z,0.70
2022-11-21T00:09:12.479Z,1.17
2022-11-21T00:11:41.590Z,1.00
2022-11-21T00:14:10.713Z,1.00
2022-11-21T00:16:39.941Z,0.80
2022-11-21T00:19:09.420Z,0.80
2022-11-21T00:21:38.570Z,1.15
2022-11-21T00:24:08.662Z,1.10
2022-11-21T00:26:39.482Z,1.88
2022-11-21T00:29:08.871Z,0.80
2022-11-21T00:31:37.910Z,1.10
2022-11-21T00:34:07.080Z,0.70
2022-11-21T00:36:36.249Z,1.88
2022-11-21T00:39:05.563Z,1.33
2022-11-21T00:41:34.680Z,0.90
2022-11-21T00:44:05.444Z,0.65
2022-11-21T00:46:34.582Z,1.52
2022-11-21T00:49:03.686Z,0.93
2022-11-21T00:51:32.768Z,0.82
2022-11-21T00:54:02.082Z,0.70
2022-11-21T00:56:31.248Z,0.73
2022-11-21T00:59:00.419Z,1.05
2022-11-21T01:01:31.078Z,1.05
2022-11-21T01:04:00.601Z,1.58
2022-11-21T01:06:29.882Z,1.35
2022-11-21T01:08:59.115Z,1.27
2022-11-21T01:11:28.188Z,1.63
2022-11-21T01:13:57.492Z,1.88
2022-11-21T01:16:27.939Z,1.10
2022-11-21T01:18:58.680Z,1.30
2022-11-21T01:21:29.311Z,0.70
2022-11-21T01:24:00.822Z,1.10
2022-11-21T01:26:31.404Z,1.83
2022-11-21T01:29:00.777Z,1.27
2022-11-21T01:31:31.168Z,1.02
2022-11-21T01:34:02.245Z,1.10
2022-11-21T01:36:33.241Z,0.95
2022-11-21T01:39:04.027Z,0.90
2022-11-21T01:41:35.686Z,1.38
2022-11-21T01:44:11.342Z,1.10
2022-11-21T01:46:40.474Z,1.52
2022-11-21T01:49:13.870Z,1.15
2022-11-21T01:51:46.597Z,1.55
2022-11-21T01:54:20.196Z,0.85
2022-11-21T01:56:54.872Z,1.13
2022-11-21T01:59:29.087Z,3.17
2022-11-21T02:02:01.371Z,0.95
2022-11-21T02:04:34.212Z,0.98
2022-11-21T02:07:05.879Z,1.33
2022-11-21T02:09:37.553Z,1.10
2022-11-21T02:12:10.150Z,0.90
2022-11-21T02:14:41.727Z,1.45
2022-11-21T02:17:11.953Z,1.15
2022-11-21T02:19:50.497Z,1.17
2022-11-21T02:22:26.560Z,1.00
2022-11-21T02:25:03.656Z,1.13
2022-11-21T02:27:33.215Z,1.20
2022-11-21T02:30:04.569Z,1.40
2022-11-21T02:32:36.878Z,1.33
2022-11-21T02:35:06.884Z,1.17
2022-11-21T02:37:38.649Z,1.02
2022-11-21T02:40:14.266Z,1.02
2022-11-21T02:42:52.792Z,1.00
2022-11-21T02:45:27.019Z,1.55
2022-11-21T02:48:03.445Z,2.60
2022-11-21T02:50:35.543Z,1.00
2022-11-21T02:53:05.853Z,0.88
2022-11-21T02:55:36.985Z,0.98
2022-11-21T02:58:06.493Z,1.63
2022-11-21T03:00:36.967Z,1.00
2022-11-21T03:03:06.268Z,0.98
2022-11-21T03:05:35.486Z,0.98
2022-11-21T03:08:05.761Z,1.25
2022-11-21T03:10:36.344Z,1.02
2022-11-21T03:13:05.578Z,1.05
2022-11-21T03:15:35.962Z,0.90
2022-11-21T03:18:05.952Z,1.20
2022-11-21T03:20:36.181Z,1.88
2022-11-21T03:23:05.730Z,1.20
2022-11-21T03:25:36.384Z,0.90
2022-11-21T03:28:05.875Z,0.90
2022-11-21T03:30:34.961Z,1.65
2022-11-21T03:33:04.100Z,1.10
2022-11-21T03:35:33.188Z,0.70
2022-11-21T03:38:02.364Z,1.20
2022-11-21T03:40:31.521Z,1.70
2022-11-21T03:43:07.886Z,1.20
2022-11-21T03:45:37.091Z,1.00
2022-11-21T03:48:06.624Z,1.23
2022-11-21T03:50:35.837Z,1.17
2022-11-21T03:53:04.978Z,0.98
2022-11-21T03:55:34.108Z,1.20
2022-11-21T03:58:03.165Z,1.23
2022-11-21T04:00:33.706Z,1.10
2022-11-21T04:03:02.844Z,1.83
2022-11-21T04:05:32.093Z,1.60
2022-11-21T04:08:01.201Z,0.95
2022-11-21T04:10:30.282Z,1.10
2022-11-21T04:12:59.539Z,1.25
2022-11-21T04:15:28.670Z,1.02
2022-11-21T04:17:59.253Z,1.10
2022-11-21T04:20:28.444Z,0.80
2022-11-21T04:22:57.497Z,1.10
2022-11-21T04:25:26.743Z,1.10
2022-11-21T04:27:58.022Z,1.23
2022-11-21T04:30:27.969Z,1.00
2022-11-21T04:32:59.262Z,0.82
2022-11-21T04:35:28.674Z,1.50
2022-11-21T04:37:57.770Z,1.70
2022-11-21T04:40:26.883Z,1.00
2022-11-21T04:42:55.989Z,1.08
2022-11-21T04:45:25.216Z,1.13
2022-11-21T04:47:54.312Z,1.27
2022-11-21T04:50:25.410Z,1.60
2022-11-21T04:52:56.523Z,1.10
2022-11-21T04:55:28.907Z,1.27
2022-11-21T04:57:58.113Z,1.13
2022-11-21T05:00:27.224Z,1.20
2022-11-21T05:02:56.315Z,1.50
2022-11-21T05:05:26.912Z,1.30
2022-11-21T05:07:56.077Z,1.00
2022-11-21T05:10:25.487Z,1.08
2022-11-21T05:13:18.890Z,1.48
2022-11-21T05:15:51.679Z,1.00
2022-11-21T05:18:21.106Z,2.40
2022-11-21T05:20:51.642Z,1.20
2022-11-21T05:23:20.855Z,1.80
2022-11-21T05:25:49.983Z,1.27
2022-11-21T05:28:19.138Z,3.15
2022-11-21T05:30:48.258Z,1.30
2022-11-21T05:33:17.438Z,1.92
2022-11-21T05:35:46.509Z,1.30
2022-11-21T05:38:17.067Z,1.92
2022-11-21T05:40:46.171Z,1.10
2022-11-21T05:43:32.803Z,2.03
2022-11-21T05:46:02.121Z,1.40
2022-11-21T05:48:31.473Z,2.70
2022-11-21T05:51:00.682Z,4.75
2022-11-21T05:53:31.772Z,5.28
2022-11-21T05:56:05.261Z,3.47
2022-11-21T05:58:34.775Z,6.00
2022-11-21T06:01:05.172Z,4.10
2022-11-21T06:03:36.015Z,2.85
2022-11-21T06:06:07.253Z,4.60
2022-11-21T06:08:39.550Z,6.13
2022-11-21T06:11:10.050Z,4.45
2022-11-21T06:13:39.676Z,5.05
2022-11-21T06:16:10.299Z,3.85
2022-11-21T06:18:40.775Z,4.28
2022-11-21T06:21:13.723Z,1.98
2022-11-21T06:23:44.875Z,2.67
2022-11-21T06:26:16.361Z,1.55
2022-11-21T06:28:46.283Z,3.35
2022-11-21T06:31:18.124Z,3.85
2022-11-21T06:33:48.118Z,2.30
2022-11-21T06:36:18.985Z,2.90
2022-11-21T06:38:50.027Z,2.33
2022-11-21T06:41:20.653Z,3.47
2022-11-21T06:43:49.925Z,2.83
2022-11-21T06:46:19.368Z,4.03
2022-11-21T06:48:48.471Z,1.73
2022-11-21T06:51:19.755Z,2.08
2022-11-21T06:53:56.015Z,3.10
2022-11-21T06:56:26.190Z,1.42
2022-11-21T06:58:55.981Z,1.42
2022-11-21T07:01:25.697Z,1.58
2022-11-21T07:03:54.975Z,1.90
2022-11-21T07:06:24.739Z,2.22
2022-11-21T07:09:25.154Z,1.40
2022-11-21T07:11:45.358Z,1.60
2022-11-21T07:14:13.584Z,5.95
2022-11-21T07:16:42.692Z,1.67
2022-11-21T07:19:12.009Z,1.42
2022-11-21T07:21:43.218Z,7.63
2022-11-21T07:24:14.328Z,1.40
2022-11-21T07:26:43.519Z,2.28
2022-11-21T07:29:12.639Z,3.35
2022-11-21T07:31:41.802Z,1.30
2022-11-21T07:34:11.072Z,1.65
2022-11-21T07:36:40.229Z,1.38
2022-11-21T07:39:09.379Z,1.75
2022-11-21T07:41:39.909Z,1.30
2022-11-21T07:44:09.111Z,1.30
2022-11-21T07:46:38.327Z,1.30
2022-11-21T07:49:07.405Z,1.35
2022-11-21T07:51:37.431Z,1.45
2022-11-21T07:54:07.095Z,1.40
2022-11-21T07:56:36.277Z,1.33
2022-11-21T07:59:06.847Z,1.30
2022-11-21T08:01:36.037Z,1.45
2022-11-21T08:04:05.322Z,1.30
2022-11-21T08:06:34.471Z,1.42
2022-11-21T08:09:03.747Z,2.85
2022-11-21T08:11:32.806Z,1.30
2022-11-21T08:14:02.007Z,2.08
2022-11-21T08:16:33.120Z,1.85
2022-11-21T08:19:02.382Z,1.20
2022-11-21T08:21:31.598Z,2.75
2022-11-21T08:24:00.746Z,1.50
2022-11-21T08:26:30.838Z,1.52
2022-11-21T08:29:00.223Z,1.33
2022-11-21T08:31:29.503Z,1.45
2022-11-21T08:34:00.281Z,1.75
2022-11-21T08:36:29.384Z,1.45
2022-11-21T08:38:58.542Z,1.73
2022-11-21T08:41:45.174Z,1.50
2022-11-21T08:44:14.516Z,1.63
2022-11-21T08:46:43.677Z,1.55
2022-11-21T08:49:14.205Z,1.42
2022-11-21T08:51:43.413Z,1.98
2022-11-21T08:54:12.767Z,1.65
2022-11-21T08:56:41.933Z,1.33
2022-11-21T08:59:11.059Z,2.17
2022-11-21T09:01:40.278Z,1.48
2022-11-21T09:04:09.827Z,1.48
2022-11-21T09:06:40.557Z,1.45
2022-11-21T09:09:09.843Z,1.17
2022-11-21T09:11:38.970Z,1.30
2022-11-21T09:14:25.719Z,1.40
2022-11-21T09:17:12.736Z,1.05
2022-11-21T09:19:41.892Z,1.30
2022-11-21T09:22:12.351Z,1.20
2022-11-21T09:24:41.559Z,1.33
2022-11-21T09:27:10.696Z,1.20
2022-11-21T09:29:39.891Z,1.77
2022-11-21T09:32:09.032Z,1.40
2022-11-21T09:34:38.191Z,1.30
2022-11-21T09:37:07.366Z,1.80
2022-11-21T09:39:37.862Z,1.40
2022-11-21T09:42:27.339Z,1.92
2022-11-21T09:45:06.024Z,1.10
2022-11-21T09:47:38.360Z,1.33
2022-11-21T09:50:26.305Z,1.08
2022-11-21T09:53:01.798Z,2.28
2022-11-21T09:55:41.262Z,1.40
2022-11-21T09:58:20.701Z,1.50
2022-11-21T10:00:53.211Z,1.20
2022-11-21T10:03:25.579Z,1.20
2022-11-21T10:05:57.481Z,1.33
2022-11-21T10:08:35.410Z,1.27
2022-11-21T10:11:20.415Z,1.20
2022-11-21T10:14:04.694Z,1.90
2022-11-21T10:16:44.246Z,1.40
2022-11-21T10:19:40.500Z,1.33
2022-11-21T10:22:29.222Z,1.75
2022-11-21T10:25:04.633Z,1.20
2022-11-21T10:27:38.941Z,1.30
2022-11-21T10:30:15.786Z,1.75
2022-11-21T10:32:48.811Z,1.33
2022-11-21T10:35:21.807Z,1.60
2022-11-21T10:37:53.850Z,1.60
2022-11-21T10:40:34.123Z,1.83
2022-11-21T10:43:23.789Z,1.65
2022-11-21T10:45:53.951Z,1.27
2022-11-21T10:48:23.220Z,2.03
2022-11-21T10:51:07.261Z,1.20
2022-11-21T10:53:53.834Z,1.23
2022-11-21T10:56:25.637Z,1.23
2022-11-21T10:58:58.072Z,1.25
2022-11-21T11:01:29.125Z,1.50
2022-11-21T11:04:27.689Z,1.60
2022-11-21T11:07:00.281Z,1.48
2022-11-21T11:09:31.956Z,1.70
2022-11-21T11:12:47.246Z,1.45
2022-11-21T11:15:22.310Z,1.45
2022-11-21T11:17:54.435Z,1.20
2022-11-21T11:20:38.163Z,1.42
2022-11-21T11:23:26.739Z,1.48
2022-11-21T11:25:57.871Z,1.30
2022-11-21T11:28:28.168Z,1.63
2022-11-21T11:30:59.096Z,1.10
2022-11-21T11:33:36.894Z,1.35
2022-11-21T11:36:16.339Z,1.45
2022-11-21T11:38:53.743Z,1.40
2022-11-21T11:42:16.398Z,3.80
2022-11-21T11:45:13.013Z,1.20
2022-11-21T11:47:54.476Z,1.10
2022-11-21T11:50:28.294Z,2.35
2022-11-21T11:53:05.762Z,1.33
2022-11-21T11:55:41.888Z,1.33
2022-11-21T11:58:21.815Z,1.77
2022-11-21T12:00:59.099Z,1.90
2022-11-21T12:03:38.095Z,1.20
2022-11-21T12:06:12.695Z,1.38
2022-11-21T12:08:53.127Z,1.35
2022-11-21T12:11:49.444Z,1.42
2022-11-21T12:15:00.094Z,1.40
2022-11-21T12:17:36.582Z,1.52
2022-11-21T12:20:16.596Z,1.35
2022-11-21T12:22:47.711Z,1.40
2022-11-21T12:25:17.366Z,1.90
2022-11-21T12:27:53.088Z,1.10
2022-11-21T12:30:57.948Z,1.30
2022-11-21T12:33:27.271Z,1.33
2022-11-21T12:36:32.197Z,1.38
2022-11-21T12:39:33.321Z,1.27
2022-11-21T12:42:25.936Z,1.80
2022-11-21T12:45:09.594Z,1.17
2022-11-21T12:48:24.834Z,1.10
2022-11-21T12:51:26.677Z,1.83
2022-11-21T12:54:30.886Z,1.30
2022-11-21T12:57:08.783Z,1.10
2022-11-21T12:59:49.562Z,1.40
2022-11-21T13:02:32.862Z,1.17
2022-11-21T13:05:04.356Z,1.23
2022-11-21T13:07:34.575Z,1.60
2022-11-21T13:10:06.494Z,1.17
2022-11-21T13:12:42.218Z,1.40
2022-11-21T13:15:20.984Z,1.27
2022-11-21T13:17:55.889Z,1.40
2022-11-21T13:20:33.063Z,1.52
2022-11-21T13:23:06.694Z,1.33
2022-11-21T13:25:47.490Z,0.93
2022-11-21T13:28:34.102Z,1.42
2022-11-21T13:31:07.028Z,1.48
2022-11-21T13:33:52.367Z,1.35
2022-11-21T13:36:40.354Z,1.75
2022-11-21T13:39:31.681Z,1.33
2022-11-21T13:42:24.568Z,1.05
2022-11-21T13:44:54.212Z,1.65
2022-11-21T13:47:57.192Z,1.58
2022-11-21T13:50:50.534Z,1.27
2022-11-21T13:53:39.230Z,1.73
2022-11-21T13:56:18.795Z,1.98
2022-11-21T13:59:01.410Z,1.35
2022-11-21T14:01:54.037Z,1.50
2022-11-21T14:05:01.994Z,1.15
2022-11-21T14:07:33.557Z,1.67
2022-11-21T14:10:03.844Z,1.23
2022-11-21T14:12:39.754Z,1.98
2022-11-21T14:15:24.019Z,1.73
2022-11-21T14:17:56.223Z,1.67
2022-11-21T14:20:27.802Z,1.35
2022-11-21T14:23:00.261Z,1.73
2022-11-21T14:25:38.019Z,1.13
2022-11-21T14:28:11.564Z,1.75
2022-11-21T14:30:43.525Z,1.90
2022-11-21T14:33:27.130Z,1.20
2022-11-21T14:36:00.249Z,2.17
2022-11-21T14:38:30.972Z,1.38
2022-11-21T14:41:32.823Z,1.92
2022-11-21T14:44:16.983Z,1.20
2022-11-21T14:46:48.161Z,1.30
2022-11-21T14:49:29.537Z,1.30
2022-11-21T14:52:17.163Z,1.30
2022-11-21T14:55:15.318Z,1.15
2022-11-21T14:57:43.523Z,1.30
2022-11-21T15:00:43.129Z,1.95
2022-11-21T15:03:21.057Z,1.40
2022-11-21T15:09:23.608Z,1.58
2022-11-21T15:11:36.152Z,2.47
2022-11-21T15:14:15.978Z,2.22
2022-11-21T15:16:47.994Z,1.27
2022-11-21T15:19:23.372Z,1.17
2022-11-21T15:21:54.402Z,1.50
2022-11-21T15:24:37.825Z,1.17
2022-11-21T15:27:30.245Z,1.40
2022-11-21T15:30:27.625Z,1.63
2022-11-21T15:33:18.001Z,2.00
2022-11-21T15:35:55.972Z,1.45
2022-11-21T15:38:41.750Z,1.42
2022-11-21T15:41:29.033Z,1.73
2022-11-21T15:44:20.401Z,1.20
2022-11-21T15:46:53.258Z,2.03
2022-11-21T15:49:32.493Z,1.75
2022-11-21T15:52:09.047Z,1.52
2022-11-21T15:54:39.017Z,8.23
2022-11-21T15:57:08.102Z,11.30
2022-11-21T15:59:37.220Z,13.82
2022-11-21T16:02:06.439Z,10.73
2022-11-21T16:04:36.044Z,14.80
2022-11-21T16:07:06.812Z,18.55
2022-11-21T16:09:36.268Z,18.05
2022-11-21T16:12:05.712Z,18.65
2022-11-21T16:14:34.881Z,11.65
2022-11-21T16:17:04.021Z,11.13
2022-11-21T16:19:33.231Z,11.77
2022-11-21T16:22:02.294Z,20.77
2022-11-21T16:24:32.894Z,15.30
2022-11-21T16:27:02.507Z,13.07
2022-11-21T16:29:31.849Z,15.05
2022-11-21T16:32:01.109Z,16.40
2022-11-21T16:34:30.608Z,12.70
2022-11-21T16:37:04.205Z,6.55
2022-11-21T16:39:37.629Z,14.63
2022-11-21T16:42:06.910Z,8.48
2022-11-21T16:44:36.208Z,9.45
2022-11-21T16:47:08.551Z,9.07
2022-11-21T16:49:43.046Z,13.50
2022-11-21T16:52:12.736Z,8.13
2022-11-21T16:54:43.381Z,4.32
2022-11-21T16:57:12.638Z,6.88
2022-11-21T16:59:41.762Z,5.80
2022-11-21T17:02:11.476Z,8.82
2022-11-21T17:04:40.673Z,5.28
2022-11-21T17:07:09.824Z,6.28
2022-11-21T17:09:39.086Z,6.55
2022-11-21T17:12:09.787Z,2.47
2022-11-21T17:14:38.965Z,7.65
2022-11-21T17:17:08.107Z,3.25
2022-11-21T17:19:37.192Z,3.05
2022-11-21T17:22:06.525Z,5.15
2022-11-21T17:24:35.937Z,2.72
2022-11-21T17:27:05.486Z,3.35
2022-11-21T17:29:36.205Z,3.80
2022-11-21T17:32:05.570Z,3.85
2022-11-21T17:34:35.326Z,4.97
2022-11-21T17:37:04.914Z,3.10
2022-11-21T17:39:34.240Z,3.83
2022-11-21T17:42:03.564Z,2.83
2022-11-21T17:44:33.461Z,4.63
2022-11-21T17:47:04.142Z,2.72
2022-11-21T17:49:37.287Z,12.05
2022-11-21T17:52:07.942Z,7.35
2022-11-21T17:54:37.198Z,5.40
2022-11-21T17:57:06.875Z,5.85
2022-11-21T17:59:38.658Z,10.07
2022-11-21T18:02:10.183Z,4.53
2022-11-21T18:04:40.590Z,8.90
2022-11-21T18:07:09.988Z,10.32
2022-11-21T18:09:39.443Z,9.88
2022-11-21T21:06:27.899Z,6.43
2022-11-21T21:08:57.159Z,9.32
2022-11-21T21:14:16.030Z,5.20
2022-11-21T21:16:45.276Z,6.03
2022-11-21T21:19:14.425Z,7.03
2022-11-21T21:21:45.029Z,4.90
2022-11-21T21:24:14.842Z,2.78
2022-11-21T21:26:46.467Z,5.38
2022-11-21T21:29:18.577Z,3.80
2022-11-21T21:31:52.847Z,4.82
2022-11-21T21:34:23.639Z,1.65
2022-11-21T21:36:54.191Z,5.22
2022-11-21T21:39:23.289Z,2.50
2022-11-21T21:41:52.491Z,5.40
2022-11-21T21:44:21.735Z,2.45
2022-11-21T21:46:50.919Z,2.10
2022-11-21T21:49:20.057Z,4.35
2022-11-21T21:51:49.163Z,1.98
2022-11-21T21:54:21.748Z,3.30
2022-11-21T21:56:51.737Z,2.75
2022-11-21T21:59:20.931Z,2.45
2022-11-21T22:01:50.375Z,5.10
2022-11-21T22:04:19.658Z,4.95
2022-11-21T22:06:48.832Z,2.17
2022-11-21T22:09:19.490Z,1.65
2022-11-21T22:11:48.664Z,2.67
2022-11-21T22:14:18.242Z,1.90
2022-11-21T22:16:47.348Z,1.40
2022-11-21T22:19:16.869Z,2.05
2022-11-21T22:21:46.028Z,1.73
2022-11-21T22:24:25.382Z,1.33
2022-11-21T22:26:56.329Z,1.48
2022-11-21T22:29:25.467Z,1.80
2022-11-21T22:31:54.580Z,1.83
2022-11-21T22:34:24.210Z,0.90
2022-11-21T22:36:53.401Z,4.65
2022-11-21T22:39:22.506Z,4.60
2022-11-21T22:41:55.660Z,1.60
2022-11-21T22:44:29.354Z,2.47
2022-11-21T22:46:58.733Z,2.42
2022-11-21T22:49:27.843Z,2.00
2022-11-21T22:51:56.983Z,1.83
2022-11-21T22:54:26.254Z,2.60
2022-11-21T22:56:55.326Z,1.42
2022-11-21T22:59:24.431Z,1.60
2022-11-21T23:01:55.029Z,1.27
2022-11-21T23:04:24.205Z,1.25
2022-11-21T23:06:53.442Z,1.52
2022-11-21T23:09:22.566Z,0.93
2022-11-21T23:11:51.813Z,1.13
2022-11-21T23:14:21.134Z,1.15
2022-11-21T23:16:50.335Z,1.13
2022-11-21T23:19:21.028Z,1.35
2022-11-21T23:21:50.791Z,1.33
2022-11-21T23:24:19.990Z,0.98
2022-11-21T23:26:49.138Z,1.15
2022-11-21T23:29:18.277Z,1.33
2022-11-21T23:31:47.435Z,1.15
2022-11-21T23:34:16.672Z,1.50
2022-11-21T23:36:47.225Z,1.08
2022-11-21T23:39:16.414Z,0.90
2022-11-21T23:41:45.510Z,1.02
2022-11-21T23:44:14.843Z,0.95
2022-11-21T23:46:43.943Z,1.98
2022-11-21T23:49:13.074Z,0.80
2022-11-21T23:51:42.242Z,1.48
2022-11-21T23:54:13.014Z,1.65
2022-11-21T23:56:42.221Z,1.60
2022-11-21T23:59:12.924Z,2.80
